Cleveland, Ohio
Current Conditions -  °F | °C
As of 10:53 PM on Tuesday 21 Oct 2014 (Local Time) from KBKL Reporting Station
Overcast Overcast  
Wind Chill: 50°   Ceiling: 1700
Heat Index: 50°   Visibility: 10mi
Dew Point: 44°   Wind: 18mph
Humidity: 80%   Direction: 360°N
Pressure: 30.11"   Gusts: 25mph
Location:  41.5°N, 81.69°W
Report Text: KBKL 220253Z 36016G22KT 10SM OVC017 10/07 A3011 RMK AO2 RAE46 SLP197 P0001 60002 T01000067 51020
Loading
Personal Weather Stations






























Interactive Weather Map
Tropical Storm Tracking
New forecast layout! Learn more

10-Day Weather Forecast

Advertisements
Track Severe Weather on mobile